Time;durP1;ratioP1;P1;durP2;ratioP2;P2;SDS_P1;SDS_P2;PMS_P1;PMS_P2;Temp;Humidity;BMP_temperature;BMP_pressure;BME280_temperature;BME280_humidity;BME280_pressure;Samples;Min_cycle;Max_cycle;Signal;HPM_P1;HPM_P2
2022/03/09 00:00:38;;;;;;;10.43;7.57;;;-1.80;86.40;;;;;;5071714;28;20228;-82
2022/03/09 00:03:05;;;;;;;13.20;7.97;;;-1.80;87.00;;;;;;5070949;28;20207;-82
2022/03/09 00:05:32;;;;;;;13.15;8.13;;;-1.80;87.20;;;;;;5071836;28;20944;-82
2022/03/09 00:07:58;;;;;;;12.27;7.50;;;-1.80;87.30;;;;;;5070346;28;20215;-81
2022/03/09 00:10:25;;;;;;;9.68;7.10;;;-1.80;87.30;;;;;;5071344;28;20199;-82
2022/03/09 00:12:53;;;;;;;10.95;6.63;;;-1.90;87.00;;;;;;5071424;28;20687;-82
2022/03/09 00:15:20;;;;;;;10.77;7.40;;;-1.90;87.00;;;;;;5069295;28;20769;-82
2022/03/09 00:17:47;;;;;;;8.57;6.65;;;-1.90;87.50;;;;;;5070702;28;20777;-81
2022/03/09 00:20:14;;;;;;;11.20;7.32;;;-2.00;87.40;;;;;;5052161;28;20700;-81
2022/03/09 00:22:40;;;;;;;8.60;6.43;;;-2.00;87.80;;;;;;5051976;28;20288;-82
2022/03/09 00:25:08;;;;;;;9.93;6.60;;;-2.00;88.20;;;;;;5051352;28;20225;-82
2022/03/09 00:27:35;;;;;;;10.05;6.88;;;-2.00;87.90;;;;;;5051765;28;20216;-82
2022/03/09 00:30:04;;;;;;;11.40;6.82;;;-2.00;87.90;;;;;;5051663;28;20197;-83
2022/03/09 00:32:31;;;;;;;10.30;8.10;;;-2.00;87.80;;;;;;5053023;28;20259;-83
2022/03/09 00:34:58;;;;;;;10.90;7.50;;;-2.00;88.30;;;;;;5051236;28;20225;-82
2022/03/09 00:37:25;;;;;;;12.25;7.20;;;-2.10;88.40;;;;;;5051084;28;20205;-82
2022/03/09 00:39:51;;;;;;;11.02;7.20;;;-2.10;88.40;;;;;;5052235;28;20228;-81
2022/03/09 00:42:18;;;;;;;9.57;6.32;;;-2.10;88.50;;;;;;5051109;28;20197;-82
2022/03/09 00:44:45;;;;;;;12.07;6.97;;;-2.20;88.40;;;;;;5052218;28;20216;-82
2022/03/09 00:47:13;;;;;;;8.63;6.03;;;-2.20;88.30;;;;;;5051139;28;20205;-81
2022/03/09 00:49:40;;;;;;;9.60;6.28;;;-2.10;88.50;;;;;;5053190;28;20232;-82
2022/03/09 00:52:07;;;;;;;8.52;6.10;;;-2.20;88.40;;;;;;5052283;28;20213;-82
2022/03/09 00:54:34;;;;;;;9.45;7.53;;;-2.20;88.50;;;;;;5051400;28;20235;-81
2022/03/09 00:57:01;;;;;;;11.02;6.47;;;-2.20;88.10;;;;;;5050922;28;20205;-82
2022/03/09 00:59:27;;;;;;;11.18;6.65;;;-2.30;88.40;;;;;;5050316;28;20736;-82
2022/03/09 01:01:54;;;;;;;8.48;6.60;;;-2.30;88.60;;;;;;5050885;28;20220;-82
2022/03/09 01:04:22;;;;;;;13.48;6.95;;;-2.30;89.00;;;;;;5050368;28;20213;-82
2022/03/09 01:06:49;;;;;;;9.90;6.90;;;-2.30;88.50;;;;;;5050710;28;20192;-83
2022/03/09 01:09:15;;;;;;;10.70;6.10;;;-2.30;88.60;;;;;;5056947;28;20208;-83
2022/03/09 01:11:42;;;;;;;6.80;5.68;;;-2.30;88.60;;;;;;5053450;28;20220;-82
2022/03/09 01:14:09;;;;;;;7.38;5.45;;;-2.30;88.60;;;;;;5058625;28;20221;-82
2022/03/09 01:16:35;;;;;;;7.22;5.97;;;-2.30;88.70;;;;;;5054064;28;20960;-83
2022/03/09 01:19:02;;;;;;;6.78;4.93;;;-2.30;89.20;;;;;;5052364;28;20308;-82
2022/03/09 01:21:31;;;;;;;9.40;5.40;;;-2.30;89.20;;;;;;5050962;28;20205;-82
2022/03/09 01:23:58;;;;;;;8.35;5.93;;;-2.30;89.40;;;;;;5050161;28;20232;-83
2022/03/09 01:26:26;;;;;;;8.60;5.35;;;-2.30;89.60;;;;;;5049665;28;20212;-83
2022/03/09 01:28:52;;;;;;;9.13;6.38;;;-2.30;89.90;;;;;;5049567;28;20205;-83
2022/03/09 01:33:47;;;;;;;9.07;6.53;;;-2.40;89.70;;;;;;5082975;28;20203;-79
2022/03/09 01:36:13;;;;;;;6.85;5.05;;;-2.40;89.90;;;;;;5090813;28;20199;-77
2022/03/09 01:38:41;;;;;;;11.18;6.40;;;-2.50;90.20;;;;;;5069630;28;20200;-78
2022/03/09 01:41:08;;;;;;;10.15;5.57;;;-2.50;90.40;;;;;;5070861;28;20207;-79
2022/03/09 01:43:35;;;;;;;7.60;6.50;;;-2.50;90.30;;;;;;5072094;28;20228;-79
2022/03/09 01:46:02;;;;;;;9.00;6.80;;;-2.50;90.40;;;;;;5073368;28;20223;-78
2022/03/09 01:48:28;;;;;;;8.18;5.90;;;-2.50;90.40;;;;;;5073262;28;20196;-79
2022/03/09 01:50:55;;;;;;;7.45;6.30;;;-2.50;90.40;;;;;;5073977;28;20216;-78
2022/03/09 01:53:22;;;;;;;8.65;5.80;;;-2.50;90.50;;;;;;5074889;28;20215;-78
2022/03/09 01:55:50;;;;;;;11.38;6.32;;;-2.50;90.70;;;;;;5074774;28;20628;-78
2022/03/09 01:58:17;;;;;;;7.30;5.68;;;-2.50;90.80;;;;;;5073678;28;20215;-79
2022/03/09 02:00:44;;;;;;;7.63;5.65;;;-2.60;90.80;;;;;;5075604;28;20220;-78
2022/03/09 02:03:11;;;;;;;6.68;4.85;;;-2.50;90.80;;;;;;5079055;28;20204;-78
2022/03/09 02:05:38;;;;;;;8.77;5.70;;;-2.50;90.80;;;;;;5076312;28;20217;-79
2022/03/09 02:10:51;;;;;;;9.52;5.82;;;-2.60;90.30;;;;;;5075163;28;20733;-79
2022/03/09 02:13:18;;;;;;;9.07;6.47;;;-2.60;90.30;;;;;;5075984;28;20211;-79
2022/03/09 02:15:45;;;;;;;8.38;5.82;;;-2.50;90.60;;;;;;5074944;28;20244;-78
2022/03/09 02:18:12;;;;;;;7.25;5.22;;;-2.60;90.60;;;;;;5073529;28;20196;-78
2022/03/09 02:20:46;;;;;;;8.85;5.20;;;-2.60;90.40;;;;;;5073915;28;20224;-79
2022/03/09 02:23:14;;;;;;;6.93;5.90;;;-2.70;90.60;;;;;;5074779;28;20199;-79
2022/03/09 02:25:41;;;;;;;6.13;5.25;;;-2.70;90.50;;;;;;5074813;28;20596;-79
2022/03/09 02:28:08;;;;;;;10.15;5.95;;;-2.70;90.40;;;;;;5074761;28;20204;-79
2022/03/09 02:30:34;;;;;;;6.82;5.38;;;-2.70;90.50;;;;;;5074740;28;20204;-80
2022/03/09 02:33:01;;;;;;;7.00;5.20;;;-2.70;90.70;;;;;;5075806;28;20675;-79
2022/03/09 02:35:28;;;;;;;7.32;5.50;;;-2.70;90.90;;;;;;5082314;28;20220;-78
2022/03/09 02:37:55;;;;;;;7.60;5.90;;;-2.80;91.20;;;;;;5077108;28;20200;-79
2022/03/09 02:40:23;;;;;;;8.98;5.57;;;-2.90;91.20;;;;;;5076582;28;20224;-79
2022/03/09 02:42:50;;;;;;;7.03;5.85;;;-2.80;91.30;;;;;;5072445;28;20205;-77
2022/03/09 02:45:17;;;;;;;7.10;5.32;;;-2.80;91.10;;;;;;5073539;28;20581;-77
2022/03/09 02:47:45;;;;;;;10.27;5.28;;;-2.80;91.10;;;;;;5072884;28;20287;-78
2022/03/09 02:50:13;;;;;;;6.88;5.30;;;-2.90;91.30;;;;;;5073446;28;20196;-77
2022/03/09 02:52:41;;;;;;;13.10;5.75;;;-2.90;91.20;;;;;;5073946;28;20767;-79
2022/03/09 02:55:09;;;;;;;8.00;5.70;;;-2.90;91.10;;;;;;5073440;28;20639;-77
2022/03/09 02:57:37;;;;;;;9.45;5.55;;;-2.90;91.10;;;;;;5073135;28;20204;-77
2022/03/09 03:00:07;;;;;;;6.28;5.35;;;-2.90;91.20;;;;;;5073704;28;20228;-77
2022/03/09 03:02:34;;;;;;;8.23;5.50;;;-2.90;91.40;;;;;;5074274;28;20204;-78
2022/03/09 03:05:01;;;;;;;7.20;5.50;;;-3.00;91.50;;;;;;5073313;28;20622;-79
2022/03/09 03:07:29;;;;;;;8.45;5.55;;;-3.10;91.80;;;;;;5072144;28;20200;-79
2022/03/09 03:09:55;;;;;;;9.13;5.85;;;-3.10;91.90;;;;;;5076265;28;20208;-79
2022/03/09 03:12:22;;;;;;;10.23;5.78;;;-3.10;91.70;;;;;;5076940;28;20211;-78
2022/03/09 03:14:50;;;;;;;7.45;5.60;;;-3.10;91.70;;;;;;5076690;28;20224;-79
2022/03/09 03:17:17;;;;;;;8.30;5.30;;;-3.10;91.70;;;;;;5076411;28;20220;-77
2022/03/09 03:19:44;;;;;;;12.05;5.32;;;-3.10;91.70;;;;;;5076301;28;20227;-78
2022/03/09 03:22:10;;;;;;;7.07;5.55;;;-3.20;91.70;;;;;;5076792;28;20201;-78
2022/03/09 03:24:37;;;;;;;9.63;5.55;;;-3.20;91.80;;;;;;5080327;28;20224;-78
2022/03/09 03:27:04;;;;;;;6.63;5.97;;;-3.20;91.80;;;;;;5082890;28;20204;-77
2022/03/09 03:29:31;;;;;;;8.65;6.60;;;-3.20;91.70;;;;;;5082975;28;20199;-77
2022/03/09 03:31:59;;;;;;;9.10;5.75;;;-3.20;91.90;;;;;;5084606;28;20212;-77
2022/03/09 03:34:26;;;;;;;6.18;4.93;;;-3.20;92.00;;;;;;5083967;28;20227;-77
2022/03/09 03:36:52;;;;;;;7.22;6.07;;;-3.30;92.10;;;;;;5082366;28;20890;-77
2022/03/09 03:39:19;;;;;;;7.35;5.53;;;-3.30;92.10;;;;;;5083866;28;20310;-78
2022/03/09 03:41:46;;;;;;;6.90;5.25;;;-3.30;92.00;;;;;;5083516;28;20212;-78
2022/03/09 03:44:12;;;;;;;6.10;5.13;;;-3.30;91.90;;;;;;5079807;28;20318;-78
2022/03/09 03:46:40;;;;;;;7.65;5.10;;;-3.40;91.90;;;;;;5079821;28;20215;-77
2022/03/09 03:49:08;;;;;;;7.55;5.72;;;-3.30;91.70;;;;;;5078010;28;20201;-78
2022/03/09 03:51:34;;;;;;;7.95;4.90;;;-3.40;91.70;;;;;;5077885;28;20204;-78
2022/03/09 03:54:01;;;;;;;7.70;5.78;;;-3.40;91.80;;;;;;5081215;28;20418;-79
2022/03/09 03:56:28;;;;;;;9.57;5.47;;;-3.50;91.90;;;;;;5080985;28;20205;-77
2022/03/09 03:58:55;;;;;;;8.50;5.63;;;-3.50;91.80;;;;;;5080593;28;20212;-77
2022/03/09 04:01:21;;;;;;;7.80;6.05;;;-3.50;91.80;;;;;;5081463;28;20221;-78
2022/03/09 04:03:48;;;;;;;8.35;5.18;;;-3.50;91.90;;;;;;5082223;28;20228;-78
2022/03/09 04:06:16;;;;;;;7.75;6.07;;;-3.50;92.00;;;;;;5081661;28;20216;-78
2022/03/09 04:08:43;;;;;;;7.65;5.35;;;-3.60;92.20;;;;;;5081561;28;20204;-78
2022/03/09 04:11:09;;;;;;;6.95;5.70;;;-3.60;92.10;;;;;;5081807;28;20541;-78
2022/03/09 04:13:36;;;;;;;12.60;5.03;;;-3.60;92.10;;;;;;5082553;28;20667;-79
2022/03/09 04:16:03;;;;;;;10.57;6.05;;;-3.60;92.30;;;;;;5082552;28;20206;-78
2022/03/09 04:18:30;;;;;;;6.95;5.65;;;-3.60;92.40;;;;;;5080617;28;20207;-78
2022/03/09 04:20:56;;;;;;;10.25;5.30;;;-3.70;92.50;;;;;;5080087;28;20220;-79
2022/03/09 04:23:24;;;;;;;8.52;5.68;;;-3.70;92.50;;;;;;5079710;28;20200;-79
2022/03/09 04:25:51;;;;;;;7.53;5.38;;;-3.70;92.50;;;;;;5078919;28;20228;-79
2022/03/09 04:28:18;;;;;;;7.43;5.38;;;-3.70;92.40;;;;;;5078480;28;20202;-79
2022/03/09 04:30:45;;;;;;;8.02;5.00;;;-3.70;92.40;;;;;;5078311;28;20201;-79
2022/03/09 04:33:12;;;;;;;7.75;6.05;;;-3.70;92.40;;;;;;5077334;28;20576;-79
2022/03/09 04:35:38;;;;;;;7.40;4.88;;;-3.70;92.40;;;;;;5077978;28;20224;-78
2022/03/09 04:38:05;;;;;;;5.65;4.90;;;-3.80;92.30;;;;;;5073025;28;20208;-78
2022/03/09 04:40:33;;;;;;;7.28;4.80;;;-3.80;92.30;;;;;;5072546;28;20224;-76
2022/03/09 04:43:00;;;;;;;7.70;5.10;;;-3.80;92.30;;;;;;5072394;28;20203;-76
2022/03/09 04:45:27;;;;;;;7.88;5.60;;;-3.80;92.50;;;;;;5082382;28;20223;-75
2022/03/09 04:47:54;;;;;;;8.57;5.88;;;-3.80;92.70;;;;;;5079765;28;20238;-76
2022/03/09 04:50:20;;;;;;;7.20;5.40;;;-3.90;92.80;;;;;;5084784;28;20191;-77
2022/03/09 04:52:47;;;;;;;7.65;5.40;;;-3.90;92.70;;;;;;5088612;28;20219;-77
2022/03/09 04:55:14;;;;;;;6.47;5.35;;;-4.00;92.80;;;;;;5094182;28;20219;-77
2022/03/09 04:57:42;;;;;;;7.55;6.18;;;-4.00;92.80;;;;;;5093842;28;20194;-78
2022/03/09 05:00:10;;;;;;;7.95;5.38;;;-4.00;92.90;;;;;;5086314;28;20219;-77
2022/03/09 05:02:37;;;;;;;6.53;5.03;;;-4.00;92.80;;;;;;5083525;28;20556;-77
2022/03/09 05:05:05;;;;;;;6.72;5.38;;;-4.00;92.90;;;;;;5083004;28;20219;-77
2022/03/09 05:07:32;;;;;;;6.30;5.22;;;-4.00;92.90;;;;;;5080929;28;20192;-77
2022/03/09 05:09:59;;;;;;;7.93;5.50;;;-4.00;92.90;;;;;;5076687;28;20193;-75
2022/03/09 05:12:26;;;;;;;6.88;5.25;;;-4.00;92.90;;;;;;5081539;28;20208;-78
2022/03/09 05:14:54;;;;;;;8.40;6.03;;;-4.00;93.10;;;;;;5081853;28;20219;-78
2022/03/09 05:17:21;;;;;;;8.95;6.25;;;-4.10;93.40;;;;;;5080935;28;20199;-74
2022/03/09 05:19:48;;;;;;;7.88;6.95;;;-4.10;93.50;;;;;;5084387;28;20467;-79
2022/03/09 05:22:15;;;;;;;9.90;6.28;;;-4.10;93.50;;;;;;5086199;28;20207;-79
2022/03/09 05:24:41;;;;;;;6.25;5.60;;;-4.10;93.50;;;;;;5095799;28;20279;-79
2022/03/09 05:27:08;;;;;;;9.77;5.55;;;-4.10;93.50;;;;;;5095339;28;20196;-79
2022/03/09 05:29:35;;;;;;;9.52;6.20;;;-4.10;93.50;;;;;;5096128;28;20693;-79
2022/03/09 05:32:04;;;;;;;9.70;5.95;;;-4.00;94.30;;;;;;5094204;28;20211;-79
2022/03/09 05:34:31;;;;;;;8.70;5.32;;;-4.00;94.80;;;;;;5092833;28;20589;-79
2022/03/09 05:36:58;;;;;;;8.20;5.70;;;-3.90;94.50;;;;;;5093236;28;20210;-80
2022/03/09 05:39:24;;;;;;;9.60;6.05;;;-3.90;94.00;;;;;;5089132;28;20201;-80
2022/03/09 05:41:51;;;;;;;8.52;5.28;;;-3.90;93.90;;;;;;5071268;28;20583;-79
2022/03/09 05:44:18;;;;;;;11.02;6.45;;;-3.90;93.70;;;;;;5073812;28;20602;-80
2022/03/09 05:46:45;;;;;;;14.07;6.63;;;-3.90;93.70;;;;;;5073123;28;20310;-80
2022/03/09 05:49:13;;;;;;;9.85;5.95;;;-4.00;93.70;;;;;;5073754;28;20197;-78
2022/03/09 05:51:40;;;;;;;8.35;5.55;;;-4.10;93.70;;;;;;5073709;28;20197;-80
2022/03/09 05:54:06;;;;;;;9.52;5.95;;;-4.10;93.80;;;;;;5073487;28;20227;-78
2022/03/09 05:56:33;;;;;;;7.35;5.50;;;-4.10;93.90;;;;;;5072736;28;20212;-78
2022/03/09 05:59:00;;;;;;;11.80;6.20;;;-4.10;94.00;;;;;;5072543;28;20204;-78
2022/03/09 06:01:27;;;;;;;11.15;6.25;;;-4.10;94.00;;;;;;5072720;28;20291;-79
2022/03/09 06:03:53;;;;;;;11.60;6.60;;;-4.10;93.90;;;;;;5073550;28;20228;-80
2022/03/09 06:06:21;;;;;;;7.82;5.60;;;-4.10;93.90;;;;;;5073607;28;20196;-79
2022/03/09 06:08:48;;;;;;;12.13;5.95;;;-4.10;94.00;;;;;;5073075;28;20403;-78
2022/03/09 06:11:15;;;;;;;7.18;5.55;;;-4.10;94.00;;;;;;5073088;28;20562;-79
2022/03/09 06:13:42;;;;;;;10.70;5.93;;;-4.20;94.10;;;;;;5072957;28;20597;-79
2022/03/09 06:16:08;;;;;;;8.95;6.00;;;-4.20;94.20;;;;;;5073683;28;20211;-80
2022/03/09 06:18:35;;;;;;;11.23;7.15;;;-4.20;94.30;;;;;;5072950;28;20207;-78
2022/03/09 06:21:02;;;;;;;11.00;6.07;;;-4.10;94.30;;;;;;5073877;28;20223;-80
2022/03/09 06:23:31;;;;;;;9.90;6.40;;;-4.10;94.20;;;;;;5073560;28;20192;-80
2022/03/09 06:25:57;;;;;;;10.00;6.65;;;-4.00;94.20;;;;;;5073642;28;20722;-77
2022/03/09 06:28:24;;;;;;;9.70;5.93;;;-4.00;94.20;;;;;;5071836;28;20200;-78
2022/03/09 06:30:51;;;;;;;11.45;6.90;;;-4.00;94.20;;;;;;5072753;28;20204;-79
2022/03/09 06:33:18;;;;;;;7.75;5.80;;;-3.90;94.20;;;;;;5073249;28;20342;-79
2022/03/09 06:35:45;;;;;;;8.85;5.82;;;-3.80;94.30;;;;;;5073602;28;20220;-79
2022/03/09 06:38:12;;;;;;;8.52;5.82;;;-3.80;94.30;;;;;;5074142;28;20205;-78
2022/03/09 06:40:41;;;;;;;10.27;6.88;;;-3.70;94.30;;;;;;5073950;28;20223;-79
2022/03/09 06:43:07;;;;;;;9.25;5.78;;;-3.60;94.20;;;;;;5073413;28;20205;-80
2022/03/09 06:45:34;;;;;;;8.00;6.07;;;-3.40;94.20;;;;;;5074013;28;20227;-78
2022/03/09 06:48:02;;;;;;;10.05;6.40;;;-3.40;94.60;;;;;;5072695;28;20671;-77
2022/03/09 06:50:29;;;;;;;7.95;6.40;;;-3.30;94.30;;;;;;5073786;28;20683;-79
2022/03/09 06:52:56;;;;;;;9.63;6.32;;;-3.20;94.30;;;;;;5073677;28;20216;-78
2022/03/09 06:55:23;;;;;;;7.10;5.97;;;-3.10;94.40;;;;;;5077364;28;20235;-77
2022/03/09 06:57:51;;;;;;;7.80;6.00;;;-2.80;94.20;;;;;;5076189;28;20207;-78
2022/03/09 07:00:19;;;;;;;12.70;6.95;;;-2.50;93.70;;;;;;5075300;28;20212;-79
2022/03/09 07:02:46;;;;;;;11.27;6.32;;;-2.10;93.60;;;;;;5075748;28;20197;-79
2022/03/09 07:05:14;;;;;;;10.05;6.38;;;-1.60;93.10;;;;;;5076171;28;20212;-79
2022/03/09 07:07:41;;;;;;;9.73;6.63;;;-0.80;92.60;;;;;;5077329;28;20600;-78
2022/03/09 07:10:11;;;;;;;9.00;6.70;;;0.00;91.60;;;;;;5078041;28;20581;-79
2022/03/09 07:12:38;;;;;;;9.25;6.45;;;0.90;90.70;;;;;;5077947;28;20693;-78
2022/03/09 07:15:06;;;;;;;9.82;7.00;;;1.80;88.60;;;;;;5078443;28;20282;-79
2022/03/09 07:17:33;;;;;;;9.15;6.78;;;2.60;85.50;;;;;;5076692;28;20211;-77
2022/03/09 07:20:00;;;;;;;9.52;6.80;;;3.30;83.30;;;;;;5087138;28;20211;-77
2022/03/09 07:22:27;;;;;;;9.73;7.30;;;4.10;81.00;;;;;;5087247;28;20231;-77
2022/03/09 07:24:54;;;;;;;9.05;6.95;;;4.70;78.90;;;;;;5084667;28;20236;-77
2022/03/09 07:27:21;;;;;;;9.13;7.45;;;5.20;77.80;;;;;;5072248;28;20227;-79
2022/03/09 07:29:48;;;;;;;9.25;7.03;;;5.80;76.70;;;;;;5072133;28;20204;-78
2022/03/09 07:32:16;;;;;;;8.98;7.45;;;6.30;75.10;;;;;;5136237;22;20213;-78
2022/03/09 07:34:43;;;;;;;11.57;8.02;;;6.80;73.80;;;;;;5084121;28;20225;-79
2022/03/09 07:37:10;;;;;;;9.93;7.60;;;7.40;71.80;;;;;;5067639;28;20292;-80
2022/03/09 07:39:38;;;;;;;8.30;7.50;;;8.00;70.60;;;;;;5068854;28;20201;-79
2022/03/09 07:42:05;;;;;;;12.27;7.53;;;8.40;69.70;;;;;;5068801;28;20209;-79
2022/03/09 07:44:32;;;;;;;9.02;7.80;;;8.90;68.00;;;;;;5068539;28;20228;-79
2022/03/09 07:46:59;;;;;;;9.93;7.45;;;9.20;68.40;;;;;;5066217;28;20216;-78
2022/03/09 07:49:27;;;;;;;8.55;7.28;;;9.50;64.70;;;;;;5069189;28;20201;-77
2022/03/09 07:51:54;;;;;;;9.57;7.40;;;9.30;65.20;;;;;;5069339;28;20197;-79
2022/03/09 07:54:21;;;;;;;9.35;7.65;;;9.70;65.10;;;;;;5069661;28;20221;-79
2022/03/09 07:56:49;;;;;;;11.13;8.00;;;10.30;63.30;;;;;;5071868;28;20213;-79
2022/03/09 07:59:16;;;;;;;8.90;7.93;;;10.70;60.80;;;;;;5074009;28;21208;-79
2022/03/09 08:01:43;;;;;;;10.65;7.80;;;10.40;59.80;;;;;;5073395;28;20221;-79
2022/03/09 08:04:10;;;;;;;8.70;7.07;;;10.50;62.90;;;;;;5073768;28;20229;-78
2022/03/09 08:06:40;;;;;;;7.72;6.90;;;10.90;59.70;;;;;;5073125;28;20197;-78
2022/03/09 08:09:07;;;;;;;8.50;7.47;;;11.20;58.90;;;;;;5073896;28;20201;-79
2022/03/09 08:11:34;;;;;;;8.25;7.45;;;11.10;58.80;;;;;;5073984;28;20204;-78
2022/03/09 08:14:01;;;;;;;9.07;7.82;;;11.40;58.70;;;;;;5073895;28;20209;-79
2022/03/09 08:16:28;;;;;;;8.77;7.18;;;11.30;58.00;;;;;;5073260;28;20675;-78
2022/03/09 08:18:54;;;;;;;11.85;7.85;;;11.50;58.50;;;;;;5073748;28;20204;-80
2022/03/09 08:21:21;;;;;;;10.48;8.27;;;12.10;58.90;;;;;;5073795;28;20228;-80
2022/03/09 08:23:49;;;;;;;9.95;8.30;;;12.50;58.60;;;;;;5073395;28;20201;-78
2022/03/09 08:26:16;;;;;;;13.75;7.80;;;12.60;59.70;;;;;;5073823;28;20276;-79
2022/03/09 08:28:43;;;;;;;10.50;8.02;;;12.80;58.20;;;;;;5072369;28;20201;-80
2022/03/09 08:31:09;;;;;;;12.73;8.53;;;13.10;58.70;;;;;;5074486;28;20209;-80
2022/03/09 08:33:36;;;;;;;12.00;7.87;;;13.70;57.80;;;;;;5072726;28;20455;-79
2022/03/09 08:36:03;;;;;;;12.33;7.93;;;13.90;58.30;;;;;;5072215;28;20460;-80
2022/03/09 08:38:30;;;;;;;12.77;8.20;;;14.20;57.70;;;;;;5072314;28;20535;-80
2022/03/09 08:40:58;;;;;;;11.43;8.20;;;14.90;57.40;;;;;;5070400;28;20459;-79
2022/03/09 08:43:25;;;;;;;10.20;7.80;;;14.80;56.10;;;;;;5073785;28;20527;-79
2022/03/09 08:45:52;;;;;;;8.83;6.90;;;14.80;54.90;;;;;;5072897;28;20475;-79
2022/03/09 08:48:18;;;;;;;8.50;7.60;;;14.40;54.80;;;;;;5072920;28;20451;-78
2022/03/09 08:50:45;;;;;;;14.07;8.87;;;14.30;55.60;;;;;;5073608;28;20466;-78
2022/03/09 08:53:12;;;;;;;8.87;7.97;;;14.20;55.70;;;;;;5073928;28;20448;-80
2022/03/09 08:55:39;;;;;;;7.47;6.77;;;14.70;54.20;;;;;;5073486;28;20481;-80
2022/03/09 08:58:07;;;;;;;9.33;7.87;;;15.00;53.40;;;;;;5073256;28;20451;-78
2022/03/09 09:00:34;;;;;;;8.83;7.20;;;15.10;53.50;;;;;;5073271;28;20459;-79
2022/03/09 09:03:01;;;;;;;8.50;7.60;;;15.60;54.10;;;;;;5073279;28;20483;-79
2022/03/09 09:05:28;;;;;;;8.67;7.07;;;16.20;54.00;;;;;;5073346;28;21006;-79
2022/03/09 09:07:55;;;;;;;9.07;8.17;;;16.80;53.60;;;;;;5072545;28;20454;-78
2022/03/09 09:10:22;;;;;;;11.73;7.77;;;16.50;52.40;;;;;;5072917;28;20849;-79
2022/03/09 09:12:50;;;;;;;8.33;7.43;;;17.00;52.70;;;;;;5072956;28;20455;-78
2022/03/09 09:15:19;;;;;;;10.00;8.70;;;17.50;53.00;;;;;;5072125;28;20527;-79
2022/03/09 09:17:45;;;;;;;8.43;7.63;;;18.30;51.10;;;;;;5071882;28;20478;-78
2022/03/09 09:20:13;;;;;;;8.93;7.70;;;18.80;50.20;;;;;;5072343;28;20451;-79
2022/03/09 09:22:43;;;;;;;7.97;7.27;;;19.40;50.50;;;;;;5071766;28;20533;-78
2022/03/09 09:25:10;;;;;;;9.90;8.17;;;19.70;48.90;;;;;;5071973;28;20479;-78
2022/03/09 09:27:37;;;;;;;10.00;7.97;;;19.30;49.60;;;;;;5063609;28;20459;-78
2022/03/09 09:30:04;;;;;;;8.33;7.53;;;19.80;48.90;;;;;;5055769;28;20467;-77
2022/03/09 09:32:32;;;;;;;9.10;7.97;;;19.60;47.90;;;;;;5058666;28;20460;-77
2022/03/09 09:34:59;;;;;;;8.40;7.60;;;19.80;47.90;;;;;;5063453;28;20483;-79
2022/03/09 09:37:26;;;;;;;8.83;8.00;;;20.30;48.00;;;;;;5059483;28;20732;-78
2022/03/09 09:39:53;;;;;;;9.03;8.00;;;20.40;48.20;;;;;;5055694;28;20459;-77
2022/03/09 09:42:30;;;;;;;8.77;7.90;;;20.50;47.00;;;;;;5052049;28;20582;-78
2022/03/09 09:44:58;;;;;;;9.70;8.67;;;20.10;45.60;;;;;;5053551;28;21812;-77
2022/03/09 09:47:27;;;;;;;11.40;9.00;;;18.70;46.60;;;;;;5055636;28;20523;-77
2022/03/09 09:49:56;;;;;;;11.67;9.40;;;17.10;47.10;;;;;;5055801;28;20462;-78
2022/03/09 09:52:25;;;;;;;10.17;9.03;;;16.80;47.40;;;;;;5053421;28;20955;-78
2022/03/09 09:54:55;;;;;;;11.07;8.53;;;16.40;47.20;;;;;;5055793;28;20812;-78
2022/03/09 09:57:22;;;;;;;9.50;8.60;;;16.40;48.30;;;;;;5053122;28;20456;-79
2022/03/09 09:59:49;;;;;;;11.63;9.10;;;16.90;48.30;;;;;;5055132;28;20471;-78
2022/03/09 10:02:17;;;;;;;10.87;8.70;;;17.00;47.00;;;;;;5056399;28;20475;-79
2022/03/09 10:04:47;;;;;;;12.63;9.43;;;17.50;47.80;;;;;;5070970;28;20531;-78
2022/03/09 10:07:15;;;;;;;10.87;9.13;;;18.80;48.00;;;;;;5059854;28;20463;-78
2022/03/09 10:09:42;;;;;;;10.23;9.23;;;19.60;46.70;;;;;;5066998;28;20544;-77
2022/03/09 10:12:11;;;;;;;11.30;9.50;;;19.80;46.00;;;;;;5063684;28;20473;-79
2022/03/09 10:14:44;;;;;;;10.47;9.37;;;19.80;47.00;;;;;;5060188;28;20476;-77
2022/03/09 10:17:12;;;;;;;10.53;8.60;;;20.00;45.50;;;;;;5060625;28;20452;-76
2022/03/09 10:19:41;;;;;;;10.23;9.00;;;20.50;46.90;;;;;;5057463;28;20459;-77
2022/03/09 10:22:41;;;;;;;10.80;9.70;;;22.10;46.40;;;;;;5054783;28;20475;-77
2022/03/09 10:25:19;;;;;;;10.67;9.57;;;23.40;45.00;;;;;;5063609;28;20475;-77
2022/03/09 10:27:48;;;;;;;10.63;9.63;;;24.10;44.70;;;;;;5064737;28;20538;-79
2022/03/09 10:30:17;;;;;;;10.40;9.40;;;24.30;44.00;;;;;;5065874;28;20451;-79
2022/03/09 10:32:46;;;;;;;10.80;9.80;;;24.40;43.80;;;;;;5059572;28;20986;-77
2022/03/09 10:35:14;;;;;;;12.17;9.80;;;24.40;44.00;;;;;;5057581;28;20479;-78
2022/03/09 10:37:44;;;;;;;11.93;10.63;;;24.90;43.30;;;;;;5055342;28;20455;-78
2022/03/09 10:40:12;;;;;;;10.97;9.97;;;25.00;43.10;;;;;;5060008;28;20464;-78
2022/03/09 10:42:39;;;;;;;11.67;10.47;;;24.90;42.10;;;;;;5063491;28;20482;-77
2022/03/09 10:45:08;;;;;;;11.33;10.33;;;25.10;42.50;;;;;;5061976;28;20494;-79
2022/03/09 10:47:37;;;;;;;10.80;9.80;;;25.40;42.00;;;;;;5064376;28;20451;-79
2022/03/09 10:50:13;;;;;;;11.33;10.20;;;25.40;41.70;;;;;;5063671;28;20456;-80
2022/03/09 10:52:50;;;;;;;12.13;10.50;;;25.40;42.40;;;;;;5065488;28;20498;-78
2022/03/09 10:55:29;;;;;;;10.70;9.70;;;24.90;42.40;;;;;;5065549;28;20482;-78
2022/03/09 10:58:13;;;;;;;10.60;9.63;;;25.20;42.00;;;;;;5065691;28;20463;-78
2022/03/09 11:00:43;;;;;;;10.50;9.50;;;25.10;41.00;;;;;;5065652;28;20531;-79
2022/03/09 11:03:11;;;;;;;11.33;10.23;;;25.00;42.30;;;;;;5067640;28;20485;-80
2022/03/09 11:05:48;;;;;;;12.50;10.87;;;24.90;42.90;;;;;;5067254;28;20480;-78
2022/03/09 11:08:18;;;;;;;17.40;10.53;;;24.80;44.10;;;;;;5066430;28;20451;-80
2022/03/09 11:10:46;;;;;;;12.70;10.43;;;24.90;42.90;;;;;;5067394;28;20483;-79
2022/03/09 11:13:13;;;;;;;11.67;10.47;;;24.70;42.70;;;;;;5067896;28;20484;-78
2022/03/09 11:15:42;;;;;;;11.23;10.23;;;24.90;42.90;;;;;;5067774;28;20473;-79
2022/03/09 11:18:09;;;;;;;11.47;10.37;;;25.10;42.00;;;;;;5064198;28;20460;-79
2022/03/09 11:20:36;;;;;;;11.00;10.00;;;25.20;42.20;;;;;;5055154;28;20455;-79
2022/03/09 11:23:03;;;;;;;12.87;10.53;;;24.60;41.90;;;;;;5060569;28;20459;-78
2022/03/09 11:25:32;;;;;;;12.60;10.27;;;24.80;42.90;;;;;;5063426;28;20471;-78
2022/03/09 11:28:01;;;;;;;11.70;10.50;;;25.10;42.90;;;;;;5064307;28;20858;-80
2022/03/09 11:30:29;;;;;;;11.97;10.20;;;25.30;42.40;;;;;;5064296;28;20500;-78
2022/03/09 11:32:57;;;;;;;12.87;11.57;;;25.70;41.90;;;;;;5069983;28;20487;-79
2022/03/09 11:35:35;;;;;;;12.10;10.90;;;25.90;41.80;;;;;;5070548;28;20505;-78
2022/03/09 11:38:03;;;;;;;13.40;12.00;;;25.90;42.50;;;;;;5070298;28;20455;-80
2022/03/09 11:40:31;;;;;;;12.40;10.57;;;25.70;42.40;;;;;;5069876;28;20442;-80
2022/03/09 11:43:27;;;;;;;12.70;11.50;;;25.60;42.10;;;;;;5070769;28;20456;-80
2022/03/09 11:45:54;;;;;;;14.80;10.43;;;25.30;42.20;;;;;;5072718;28;20910;-80
2022/03/09 11:48:20;;;;;;;12.50;11.20;;;25.50;42.50;;;;;;5072901;28;20459;-79
2022/03/09 11:51:12;;;;;;;11.73;10.63;;;25.80;41.90;;;;;;5068620;28;20447;-77
2022/03/09 11:53:46;;;;;;;12.10;10.43;;;26.20;42.50;;;;;;5070660;28;20673;-79
2022/03/09 11:56:35;;;;;;;12.70;11.40;;;25.50;41.80;;;;;;5069208;28;20457;-80
2022/03/09 11:59:19;;;;;;;11.63;10.53;;;25.40;42.60;;;;;;5070040;28;20463;-78
2022/03/09 12:02:18;;;;;;;11.53;10.20;;;25.40;42.10;;;;;;5070866;28;20455;-79
2022/03/09 12:04:53;;;;;;;12.30;11.20;;;25.50;40.30;;;;;;5071181;28;20475;-81
2022/03/09 12:07:56;;;;;;;14.20;11.20;;;25.40;41.30;;;;;;5070783;28;20976;-80
2022/03/09 12:10:50;;;;;;;12.60;11.40;;;24.90;43.20;;;;;;5062308;28;20459;-78
2022/03/09 12:13:21;;;;;;;12.20;11.00;;;25.50;42.30;;;;;;5057962;28;20482;-78
2022/03/09 12:16:17;;;;;;;12.00;10.80;;;25.90;41.60;;;;;;5060627;28;20491;-79
2022/03/09 12:18:46;;;;;;;13.87;11.77;;;25.60;40.80;;;;;;5070309;28;20447;-79
2022/03/09 12:21:16;;;;;;;14.00;12.60;;;25.40;41.90;;;;;;5070424;28;20451;-79
2022/03/09 12:24:33;;;;;;;14.00;12.60;;;25.30;42.10;;;;;;5069461;28;20528;-79
2022/03/09 12:27:01;;;;;;;13.10;11.40;;;25.60;42.00;;;;;;5070507;28;20456;-78
2022/03/09 12:29:41;;;;;;;12.00;10.90;;;25.70;40.90;;;;;;5068868;28;20459;-78
2022/03/09 12:32:13;;;;;;;12.97;11.67;;;25.80;40.60;;;;;;5070325;28;20449;-77
2022/03/09 12:34:42;;;;;;;12.60;11.30;;;25.50;40.70;;;;;;5068930;28;20479;-78
2022/03/09 12:37:11;;;;;;;13.53;11.67;;;25.20;41.00;;;;;;5065610;28;20456;-78
2022/03/09 12:39:39;;;;;;;18.00;12.60;;;25.10;41.10;;;;;;5066134;28;20473;-79
2022/03/09 12:42:07;;;;;;;12.53;11.27;;;25.20;41.00;;;;;;5068079;28;20852;-79
2022/03/09 12:44:36;;;;;;;13.07;11.77;;;25.70;40.60;;;;;;5066771;28;20540;-78
2022/03/09 12:47:06;;;;;;;14.87;12.27;;;25.90;39.90;;;;;;5068391;28;20454;-79
2022/03/09 12:49:36;;;;;;;12.33;11.13;;;25.20;40.80;;;;;;5066516;28;20463;-79
2022/03/09 12:52:07;;;;;;;12.50;11.20;;;24.70;39.80;;;;;;5067948;28;20527;-78